sensor_id;sensor_type;location;lat;lon;timestamp;P1;durP1;ratioP1;P2;durP2;ratioP2
68025;SDS011;54819;48.030;14.710;2023-04-03T00:01:06;9.40;;;4.90;;
68025;SDS011;54819;48.030;14.710;2023-04-03T00:03:33;8.60;;;4.70;;
68025;SDS011;54819;48.030;14.710;2023-04-03T00:08:29;7.90;;;3.20;;
68025;SDS011;54819;48.030;14.710;2023-04-03T00:10:58;8.20;;;4.00;;
68025;SDS011;54819;48.030;14.710;2023-04-03T00:13:25;7.00;;;3.80;;
68025;SDS011;54819;48.030;14.710;2023-04-03T00:15:52;7.10;;;4.00;;
68025;SDS011;54819;48.030;14.710;2023-04-03T00:18:19;14.50;;;5.60;;
68025;SDS011;54819;48.030;14.710;2023-04-03T00:20:47;10.90;;;4.80;;
68025;SDS011;54819;48.030;14.710;2023-04-03T00:23:14;10.80;;;5.00;;
68025;SDS011;54819;48.030;14.710;2023-04-03T00:25:41;7.00;;;4.00;;
68025;SDS011;54819;48.030;14.710;2023-04-03T00:28:08;8.50;;;4.70;;
68025;SDS011;54819;48.030;14.710;2023-04-03T00:30:36;8.80;;;5.20;;
68025;SDS011;54819;48.030;14.710;2023-04-03T00:33:03;7.90;;;4.50;;
68025;SDS011;54819;48.030;14.710;2023-04-03T00:35:30;10.50;;;4.50;;
68025;SDS011;54819;48.030;14.710;2023-04-03T00:37:57;7.00;;;3.90;;
68025;SDS011;54819;48.030;14.710;2023-04-03T00:40:25;11.00;;;4.90;;
68025;SDS011;54819;48.030;14.710;2023-04-03T00:42:58;9.40;;;3.90;;
68025;SDS011;54819;48.030;14.710;2023-04-03T00:45:38;9.50;;;4.50;;
68025;SDS011;54819;48.030;14.710;2023-04-03T00:48:10;10.10;;;4.30;;
68025;SDS011;54819;48.030;14.710;2023-04-03T00:50:42;9.80;;;4.30;;
68025;SDS011;54819;48.030;14.710;2023-04-03T00:53:16;8.40;;;4.30;;
68025;SDS011;54819;48.030;14.710;2023-04-03T00:55:46;8.50;;;3.90;;
68025;SDS011;54819;48.030;14.710;2023-04-03T00:58:16;9.50;;;4.50;;
68025;SDS011;54819;48.030;14.710;2023-04-03T01:00:51;9.30;;;4.80;;
68025;SDS011;54819;48.030;14.710;2023-04-03T01:03:24;9.10;;;4.70;;
68025;SDS011;54819;48.030;14.710;2023-04-03T01:05:52;7.90;;;4.30;;
68025;SDS011;54819;48.030;14.710;2023-04-03T01:08:19;7.90;;;4.10;;
68025;SDS011;54819;48.030;14.710;2023-04-03T01:10:48;9.60;;;4.10;;
68025;SDS011;54819;48.030;14.710;2023-04-03T01:13:34;8.00;;;3.90;;
68025;SDS011;54819;48.030;14.710;2023-04-03T01:16:03;7.70;;;3.40;;
68025;SDS011;54819;48.030;14.710;2023-04-03T01:18:32;6.80;;;3.50;;
68025;SDS011;54819;48.030;14.710;2023-04-03T01:24:00;9.10;;;4.60;;
68025;SDS011;54819;48.030;14.710;2023-04-03T01:26:35;7.30;;;4.00;;
68025;SDS011;54819;48.030;14.710;2023-04-03T01:29:02;6.40;;;3.70;;
68025;SDS011;54819;48.030;14.710;2023-04-03T01:34:27;7.40;;;3.40;;
68025;SDS011;54819;48.030;14.710;2023-04-03T01:36:55;7.70;;;3.90;;
68025;SDS011;54819;48.030;14.710;2023-04-03T01:39:22;7.90;;;3.60;;
68025;SDS011;54819;48.030;14.710;2023-04-03T01:41:49;7.30;;;3.90;;
68025;SDS011;54819;48.030;14.710;2023-04-03T01:44:24;6.40;;;3.50;;
68025;SDS011;54819;48.030;14.710;2023-04-03T01:46:51;6.00;;;3.40;;
68025;SDS011;54819;48.030;14.710;2023-04-03T01:49:18;7.20;;;3.60;;
68025;SDS011;54819;48.030;14.710;2023-04-03T01:51:45;5.80;;;3.30;;
68025;SDS011;54819;48.030;14.710;2023-04-03T01:54:12;7.80;;;4.10;;
68025;SDS011;54819;48.030;14.710;2023-04-03T01:56:39;6.90;;;3.90;;
68025;SDS011;54819;48.030;14.710;2023-04-03T02:01:33;7.00;;;3.70;;
68025;SDS011;54819;48.030;14.710;2023-04-03T02:04:00;7.70;;;3.50;;
68025;SDS011;54819;48.030;14.710;2023-04-03T02:06:27;7.50;;;3.80;;
68025;SDS011;54819;48.030;14.710;2023-04-03T02:08:54;8.30;;;3.30;;
68025;SDS011;54819;48.030;14.710;2023-04-03T02:11:20;6.60;;;3.60;;
68025;SDS011;54819;48.030;14.710;2023-04-03T02:13:47;8.60;;;3.90;;
68025;SDS011;54819;48.030;14.710;2023-04-03T02:16:14;7.30;;;3.90;;
68025;SDS011;54819;48.030;14.710;2023-04-03T02:18:41;8.10;;;3.90;;
68025;SDS011;54819;48.030;14.710;2023-04-03T02:21:07;8.30;;;3.70;;
68025;SDS011;54819;48.030;14.710;2023-04-03T02:23:34;9.10;;;4.20;;
68025;SDS011;54819;48.030;14.710;2023-04-03T02:26:07;13.10;;;5.10;;
68025;SDS011;54819;48.030;14.710;2023-04-03T02:28:36;9.30;;;4.40;;
68025;SDS011;54819;48.030;14.710;2023-04-03T02:31:04;7.60;;;4.20;;
68025;SDS011;54819;48.030;14.710;2023-04-03T02:33:33;7.80;;;3.90;;
68025;SDS011;54819;48.030;14.710;2023-04-03T02:36:07;7.10;;;4.00;;
68025;SDS011;54819;48.030;14.710;2023-04-03T02:38:36;6.90;;;4.10;;
68025;SDS011;54819;48.030;14.710;2023-04-03T02:41:06;9.70;;;4.40;;
68025;SDS011;54819;48.030;14.710;2023-04-03T02:43:34;8.90;;;4.10;;
68025;SDS011;54819;48.030;14.710;2023-04-03T02:46:02;9.80;;;3.60;;
68025;SDS011;54819;48.030;14.710;2023-04-03T02:48:30;8.30;;;4.30;;
68025;SDS011;54819;48.030;14.710;2023-04-03T02:50:57;6.20;;;3.60;;
68025;SDS011;54819;48.030;14.710;2023-04-03T02:53:24;8.10;;;3.80;;
68025;SDS011;54819;48.030;14.710;2023-04-03T02:55:51;6.50;;;3.60;;
68025;SDS011;54819;48.030;14.710;2023-04-03T02:58:17;7.30;;;4.40;;
68025;SDS011;54819;48.030;14.710;2023-04-03T03:00:44;9.90;;;4.60;;
68025;SDS011;54819;48.030;14.710;2023-04-03T03:03:11;9.20;;;4.60;;
68025;SDS011;54819;48.030;14.710;2023-04-03T03:05:39;9.20;;;4.30;;
68025;SDS011;54819;48.030;14.710;2023-04-03T03:08:06;8.50;;;5.50;;
68025;SDS011;54819;48.030;14.710;2023-04-03T03:10:34;8.30;;;4.30;;
68025;SDS011;54819;48.030;14.710;2023-04-03T03:15:28;8.20;;;4.20;;
68025;SDS011;54819;48.030;14.710;2023-04-03T03:17:55;9.30;;;5.10;;
68025;SDS011;54819;48.030;14.710;2023-04-03T03:20:21;7.60;;;4.50;;
68025;SDS011;54819;48.030;14.710;2023-04-03T03:22:49;10.70;;;5.50;;
68025;SDS011;54819;48.030;14.710;2023-04-03T03:25:15;9.00;;;4.40;;
68025;SDS011;54819;48.030;14.710;2023-04-03T03:27:42;8.20;;;4.20;;
68025;SDS011;54819;48.030;14.710;2023-04-03T03:30:09;9.40;;;4.10;;
68025;SDS011;54819;48.030;14.710;2023-04-03T03:32:36;9.80;;;4.60;;
68025;SDS011;54819;48.030;14.710;2023-04-03T03:35:03;9.00;;;4.90;;
68025;SDS011;54819;48.030;14.710;2023-04-03T03:37:30;9.10;;;4.60;;
68025;SDS011;54819;48.030;14.710;2023-04-03T03:39:57;8.60;;;4.20;;
68025;SDS011;54819;48.030;14.710;2023-04-03T03:42:23;8.10;;;4.60;;
68025;SDS011;54819;48.030;14.710;2023-04-03T03:44:50;9.40;;;4.20;;
68025;SDS011;54819;48.030;14.710;2023-04-03T03:47:18;8.50;;;4.30;;
68025;SDS011;54819;48.030;14.710;2023-04-03T03:49:45;8.70;;;4.20;;
68025;SDS011;54819;48.030;14.710;2023-04-03T03:52:11;9.60;;;4.90;;
68025;SDS011;54819;48.030;14.710;2023-04-03T03:54:38;7.80;;;4.30;;
68025;SDS011;54819;48.030;14.710;2023-04-03T03:57:05;9.30;;;4.30;;
68025;SDS011;54819;48.030;14.710;2023-04-03T03:59:32;6.20;;;3.60;;
68025;SDS011;54819;48.030;14.710;2023-04-03T04:01:59;7.30;;;3.50;;
68025;SDS011;54819;48.030;14.710;2023-04-03T04:04:25;7.40;;;4.00;;
68025;SDS011;54819;48.030;14.710;2023-04-03T04:06:52;6.80;;;3.70;;
68025;SDS011;54819;48.030;14.710;2023-04-03T04:09:19;9.00;;;4.30;;
68025;SDS011;54819;48.030;14.710;2023-04-03T04:11:45;9.60;;;4.20;;
68025;SDS011;54819;48.030;14.710;2023-04-03T04:14:13;7.70;;;3.90;;
68025;SDS011;54819;48.030;14.710;2023-04-03T04:16:40;9.00;;;4.20;;
68025;SDS011;54819;48.030;14.710;2023-04-03T04:19:10;9.20;;;3.80;;
68025;SDS011;54819;48.030;14.710;2023-04-03T04:21:37;8.40;;;4.60;;
68025;SDS011;54819;48.030;14.710;2023-04-03T04:24:05;9.70;;;4.60;;
68025;SDS011;54819;48.030;14.710;2023-04-03T04:26:32;8.80;;;4.40;;
68025;SDS011;54819;48.030;14.710;2023-04-03T04:28:59;8.40;;;3.90;;
68025;SDS011;54819;48.030;14.710;2023-04-03T04:31:26;10.20;;;4.40;;
68025;SDS011;54819;48.030;14.710;2023-04-03T04:33:54;7.90;;;4.30;;
68025;SDS011;54819;48.030;14.710;2023-04-03T04:36:20;9.80;;;4.60;;
68025;SDS011;54819;48.030;14.710;2023-04-03T04:38:47;6.90;;;3.50;;
68025;SDS011;54819;48.030;14.710;2023-04-03T04:41:14;7.40;;;4.00;;
68025;SDS011;54819;48.030;14.710;2023-04-03T04:43:43;8.80;;;4.10;;
68025;SDS011;54819;48.030;14.710;2023-04-03T04:46:10;8.50;;;5.00;;
68025;SDS011;54819;48.030;14.710;2023-04-03T04:48:44;8.50;;;4.20;;
68025;SDS011;54819;48.030;14.710;2023-04-03T04:51:11;10.90;;;5.10;;
68025;SDS011;54819;48.030;14.710;2023-04-03T04:53:38;6.60;;;3.90;;
68025;SDS011;54819;48.030;14.710;2023-04-03T04:58:33;8.70;;;4.60;;
68025;SDS011;54819;48.030;14.710;2023-04-03T05:01:02;6.70;;;4.10;;
68025;SDS011;54819;48.030;14.710;2023-04-03T05:03:31;6.80;;;4.10;;
68025;SDS011;54819;48.030;14.710;2023-04-03T05:05:58;13.80;;;4.60;;
68025;SDS011;54819;48.030;14.710;2023-04-03T05:08:27;8.50;;;4.70;;
68025;SDS011;54819;48.030;14.710;2023-04-03T05:10:54;8.20;;;3.90;;
68025;SDS011;54819;48.030;14.710;2023-04-03T05:13:22;7.00;;;3.60;;
68025;SDS011;54819;48.030;14.710;2023-04-03T05:15:49;7.60;;;3.90;;
68025;SDS011;54819;48.030;14.710;2023-04-03T05:18:16;8.80;;;4.50;;
68025;SDS011;54819;48.030;14.710;2023-04-03T05:20:43;7.30;;;4.10;;
68025;SDS011;54819;48.030;14.710;2023-04-03T05:23:10;8.20;;;4.60;;
68025;SDS011;54819;48.030;14.710;2023-04-03T05:28:06;24.70;;;9.50;;
68025;SDS011;54819;48.030;14.710;2023-04-03T05:30:33;10.50;;;4.50;;
68025;SDS011;54819;48.030;14.710;2023-04-03T05:33:02;10.20;;;5.60;;
68025;SDS011;54819;48.030;14.710;2023-04-03T05:35:36;9.10;;;4.10;;
68025;SDS011;54819;48.030;14.710;2023-04-03T05:38:08;6.80;;;4.30;;
68025;SDS011;54819;48.030;14.710;2023-04-03T05:40:35;6.10;;;4.20;;
68025;SDS011;54819;48.030;14.710;2023-04-03T05:43:02;5.20;;;3.10;;
68025;SDS011;54819;48.030;14.710;2023-04-03T05:45:31;8.00;;;3.80;;
68025;SDS011;54819;48.030;14.710;2023-04-03T05:47:58;6.30;;;3.70;;
68025;SDS011;54819;48.030;14.710;2023-04-03T05:50:25;8.60;;;4.50;;
68025;SDS011;54819;48.030;14.710;2023-04-03T05:52:55;18.00;;;7.20;;
68025;SDS011;54819;48.030;14.710;2023-04-03T05:55:25;7.10;;;3.90;;
68025;SDS011;54819;48.030;14.710;2023-04-03T05:57:52;10.20;;;5.00;;
68025;SDS011;54819;48.030;14.710;2023-04-03T06:00:19;7.90;;;4.40;;
68025;SDS011;54819;48.030;14.710;2023-04-03T06:02:52;8.00;;;3.90;;
68025;SDS011;54819;48.030;14.710;2023-04-03T06:05:22;8.50;;;3.50;;
68025;SDS011;54819;48.030;14.710;2023-04-03T06:07:49;7.70;;;3.70;;
68025;SDS011;54819;48.030;14.710;2023-04-03T06:10:16;9.40;;;4.30;;
68025;SDS011;54819;48.030;14.710;2023-04-03T06:12:43;6.00;;;3.90;;
68025;SDS011;54819;48.030;14.710;2023-04-03T06:15:11;7.40;;;4.20;;
68025;SDS011;54819;48.030;14.710;2023-04-03T06:20:07;6.60;;;3.70;;
68025;SDS011;54819;48.030;14.710;2023-04-03T06:22:34;7.80;;;4.30;;
68025;SDS011;54819;48.030;14.710;2023-04-03T06:25:01;8.40;;;3.50;;
68025;SDS011;54819;48.030;14.710;2023-04-03T06:27:28;8.00;;;4.20;;
68025;SDS011;54819;48.030;14.710;2023-04-03T06:29:54;10.10;;;4.00;;
68025;SDS011;54819;48.030;14.710;2023-04-03T06:32:21;8.40;;;4.00;;
68025;SDS011;54819;48.030;14.710;2023-04-03T06:34:48;10.10;;;4.60;;
68025;SDS011;54819;48.030;14.710;2023-04-03T06:37:16;8.50;;;4.20;;
68025;SDS011;54819;48.030;14.710;2023-04-03T06:39:44;9.50;;;4.90;;
68025;SDS011;54819;48.030;14.710;2023-04-03T06:42:11;9.90;;;5.00;;
68025;SDS011;54819;48.030;14.710;2023-04-03T06:44:46;9.00;;;4.60;;
68025;SDS011;54819;48.030;14.710;2023-04-03T06:47:15;8.30;;;4.50;;
68025;SDS011;54819;48.030;14.710;2023-04-03T06:49:43;8.40;;;4.40;;
68025;SDS011;54819;48.030;14.710;2023-04-03T06:52:10;7.70;;;4.50;;
68025;SDS011;54819;48.030;14.710;2023-04-03T06:59:34;8.70;;;4.30;;
68025;SDS011;54819;48.030;14.710;2023-04-03T07:02:01;9.30;;;4.60;;
68025;SDS011;54819;48.030;14.710;2023-04-03T07:04:28;10.60;;;4.60;;
68025;SDS011;54819;48.030;14.710;2023-04-03T07:06:55;8.20;;;4.80;;
68025;SDS011;54819;48.030;14.710;2023-04-03T07:09:22;9.50;;;4.90;;
68025;SDS011;54819;48.030;14.710;2023-04-03T07:11:48;9.30;;;4.60;;
68025;SDS011;54819;48.030;14.710;2023-04-03T07:14:15;7.30;;;3.90;;
68025;SDS011;54819;48.030;14.710;2023-04-03T07:16:42;9.10;;;4.60;;
68025;SDS011;54819;48.030;14.710;2023-04-03T07:19:09;8.70;;;4.40;;
68025;SDS011;54819;48.030;14.710;2023-04-03T07:21:36;12.60;;;5.10;;
68025;SDS011;54819;48.030;14.710;2023-04-03T07:24:02;10.10;;;5.00;;
68025;SDS011;54819;48.030;14.710;2023-04-03T07:26:29;11.20;;;5.40;;
68025;SDS011;54819;48.030;14.710;2023-04-03T07:28:56;9.20;;;4.80;;
68025;SDS011;54819;48.030;14.710;2023-04-03T07:31:23;10.10;;;5.10;;
68025;SDS011;54819;48.030;14.710;2023-04-03T07:33:51;8.90;;;5.30;;
68025;SDS011;54819;48.030;14.710;2023-04-03T07:36:20;7.70;;;4.30;;
68025;SDS011;54819;48.030;14.710;2023-04-03T07:38:48;8.80;;;4.90;;
68025;SDS011;54819;48.030;14.710;2023-04-03T07:41:17;7.20;;;4.10;;
68025;SDS011;54819;48.030;14.710;2023-04-03T07:43:46;10.70;;;5.10;;
68025;SDS011;54819;48.030;14.710;2023-04-03T07:46:13;9.00;;;5.30;;
68025;SDS011;54819;48.030;14.710;2023-04-03T07:48:40;7.80;;;4.50;;
68025;SDS011;54819;48.030;14.710;2023-04-03T07:51:07;12.00;;;5.60;;
68025;SDS011;54819;48.030;14.710;2023-04-03T07:53:33;8.50;;;4.70;;
68025;SDS011;54819;48.030;14.710;2023-04-03T07:56:00;9.60;;;5.00;;
68025;SDS011;54819;48.030;14.710;2023-04-03T07:58:29;10.10;;;4.80;;
68025;SDS011;54819;48.030;14.710;2023-04-03T08:00:56;13.20;;;6.30;;
68025;SDS011;54819;48.030;14.710;2023-04-03T08:03:23;9.20;;;4.80;;
68025;SDS011;54819;48.030;14.710;2023-04-03T08:05:50;7.50;;;4.50;;
68025;SDS011;54819;48.030;14.710;2023-04-03T08:08:20;9.00;;;4.10;;
68025;SDS011;54819;48.030;14.710;2023-04-03T08:10:50;9.50;;;4.90;;
68025;SDS011;54819;48.030;14.710;2023-04-03T08:13:19;9.30;;;4.10;;
68025;SDS011;54819;48.030;14.710;2023-04-03T08:18:14;7.10;;;3.80;;
68025;SDS011;54819;48.030;14.710;2023-04-03T08:20:42;8.50;;;3.70;;
68025;SDS011;54819;48.030;14.710;2023-04-03T08:23:09;8.00;;;4.20;;
68025;SDS011;54819;48.030;14.710;2023-04-03T08:25:40;7.00;;;3.10;;
68025;SDS011;54819;48.030;14.710;2023-04-03T08:28:11;7.50;;;3.30;;
68025;SDS011;54819;48.030;14.710;2023-04-03T08:30:40;9.30;;;3.80;;
68025;SDS011;54819;48.030;14.710;2023-04-03T08:33:08;6.20;;;3.10;;
68025;SDS011;54819;48.030;14.710;2023-04-03T08:38:07;6.30;;;2.20;;
68025;SDS011;54819;48.030;14.710;2023-04-03T08:40:36;3.70;;;1.80;;
68025;SDS011;54819;48.030;14.710;2023-04-03T08:45:55;5.60;;;1.70;;
68025;SDS011;54819;48.030;14.710;2023-04-03T08:48:35;4.10;;;2.00;;
68025;SDS011;54819;48.030;14.710;2023-04-03T08:51:20;3.40;;;1.70;;
68025;SDS011;54819;48.030;14.710;2023-04-03T08:54:30;4.20;;;1.70;;
68025;SDS011;54819;48.030;14.710;2023-04-03T08:57:09;3.90;;;1.90;;
68025;SDS011;54819;48.030;14.710;2023-04-03T08:59:39;3.70;;;1.90;;
68025;SDS011;54819;48.030;14.710;2023-04-03T09:02:23;4.90;;;1.80;;
68025;SDS011;54819;48.030;14.710;2023-04-03T09:04:53;6.20;;;1.80;;
68025;SDS011;54819;48.030;14.710;2023-04-03T09:07:26;7.10;;;1.70;;
68025;SDS011;54819;48.030;14.710;2023-04-03T09:10:05;6.50;;;2.00;;
68025;SDS011;54819;48.030;14.710;2023-04-03T09:12:37;6.10;;;2.50;;
68025;SDS011;54819;48.030;14.710;2023-04-03T09:15:19;4.80;;;1.60;;
68025;SDS011;54819;48.030;14.710;2023-04-03T09:18:11;5.90;;;1.90;;
68025;SDS011;54819;48.030;14.710;2023-04-03T09:23:44;5.30;;;2.50;;
68025;SDS011;54819;48.030;14.710;2023-04-03T09:26:28;6.40;;;2.30;;
68025;SDS011;54819;48.030;14.710;2023-04-03T09:29:05;6.00;;;2.20;;
68025;SDS011;54819;48.030;14.710;2023-04-03T09:31:42;6.50;;;2.80;;
68025;SDS011;54819;48.030;14.710;2023-04-03T09:34:30;5.10;;;2.20;;
68025;SDS011;54819;48.030;14.710;2023-04-03T09:37:02;5.80;;;3.20;;
68025;SDS011;54819;48.030;14.710;2023-04-03T09:39:49;6.30;;;3.00;;
68025;SDS011;54819;48.030;14.710;2023-04-03T09:42:23;9.20;;;3.40;;
68025;SDS011;54819;48.030;14.710;2023-04-03T09:45:03;7.40;;;3.40;;
68025;SDS011;54819;48.030;14.710;2023-04-03T09:47:36;5.60;;;3.10;;
68025;SDS011;54819;48.030;14.710;2023-04-03T09:52:44;7.90;;;3.40;;
68025;SDS011;54819;48.030;14.710;2023-04-03T09:57:45;6.90;;;3.10;;
68025;SDS011;54819;48.030;14.710;2023-04-03T10:00:28;6.10;;;3.20;;
68025;SDS011;54819;48.030;14.710;2023-04-03T10:02:59;6.40;;;2.60;;
68025;SDS011;54819;48.030;14.710;2023-04-03T10:10:45;6.20;;;2.60;;
68025;SDS011;54819;48.030;14.710;2023-04-03T10:13:18;6.20;;;3.10;;
68025;SDS011;54819;48.030;14.710;2023-04-03T10:15:55;6.50;;;2.80;;
68025;SDS011;54819;48.030;14.710;2023-04-03T10:18:48;6.00;;;2.90;;
68025;SDS011;54819;48.030;14.710;2023-04-03T10:21:39;6.60;;;2.80;;
68025;SDS011;54819;48.030;14.710;2023-04-03T10:24:43;8.30;;;2.90;;
68025;SDS011;54819;48.030;14.710;2023-04-03T10:34:32;6.40;;;3.00;;
68025;SDS011;54819;48.030;14.710;2023-04-03T10:37:38;6.10;;;2.90;;
68025;SDS011;54819;48.030;14.710;2023-04-03T10:46:10;7.90;;;2.90;;
68025;SDS011;54819;48.030;14.710;2023-04-03T10:51:48;5.90;;;2.50;;
68025;SDS011;54819;48.030;14.710;2023-04-03T10:54:29;5.00;;;2.70;;
68025;SDS011;54819;48.030;14.710;2023-04-03T10:57:08;7.20;;;2.60;;
68025;SDS011;54819;48.030;14.710;2023-04-03T10:59:48;7.00;;;2.70;;
68025;SDS011;54819;48.030;14.710;2023-04-03T11:02:26;4.50;;;2.10;;
68025;SDS011;54819;48.030;14.710;2023-04-03T11:05:07;5.90;;;2.10;;
68025;SDS011;54819;48.030;14.710;2023-04-03T11:08:01;6.10;;;2.10;;
68025;SDS011;54819;48.030;14.710;2023-04-03T11:10:42;4.60;;;1.90;;
68025;SDS011;54819;48.030;14.710;2023-04-03T11:13:19;5.70;;;2.00;;
68025;SDS011;54819;48.030;14.710;2023-04-03T11:18:23;10.40;;;2.30;;
68025;SDS011;54819;48.030;14.710;2023-04-03T11:23:40;5.70;;;2.70;;
68025;SDS011;54819;48.030;14.710;2023-04-03T11:26:18;6.50;;;2.30;;
68025;SDS011;54819;48.030;14.710;2023-04-03T11:28:52;7.20;;;2.20;;
68025;SDS011;54819;48.030;14.710;2023-04-03T11:34:08;6.80;;;2.20;;
68025;SDS011;54819;48.030;14.710;2023-04-03T11:36:56;5.50;;;2.20;;
68025;SDS011;54819;48.030;14.710;2023-04-03T11:39:31;5.10;;;2.30;;
68025;SDS011;54819;48.030;14.710;2023-04-03T11:44:46;5.20;;;2.40;;
68025;SDS011;54819;48.030;14.710;2023-04-03T12:01:07;5.10;;;2.10;;
68025;SDS011;54819;48.030;14.710;2023-04-03T12:19:27;4.80;;;2.50;;
68025;SDS011;54819;48.030;14.710;2023-04-03T12:22:15;5.30;;;2.70;;
68025;SDS011;54819;48.030;14.710;2023-04-03T12:24:45;5.80;;;3.30;;
68025;SDS011;54819;48.030;14.710;2023-04-03T12:27:27;4.90;;;2.70;;
68025;SDS011;54819;48.030;14.710;2023-04-03T12:30:14;4.10;;;2.20;;
68025;SDS011;54819;48.030;14.710;2023-04-03T12:32:51;3.90;;;2.40;;
68025;SDS011;54819;48.030;14.710;2023-04-03T12:35:44;5.10;;;2.50;;
68025;SDS011;54819;48.030;14.710;2023-04-03T12:47:20;6.10;;;3.00;;
68025;SDS011;54819;48.030;14.710;2023-04-03T12:49:52;5.90;;;3.70;;
68025;SDS011;54819;48.030;14.710;2023-04-03T12:52:38;5.80;;;3.00;;
68025;SDS011;54819;48.030;14.710;2023-04-03T12:55:16;4.00;;;2.10;;
68025;SDS011;54819;48.030;14.710;2023-04-03T12:57:45;4.90;;;2.30;;
68025;SDS011;54819;48.030;14.710;2023-04-03T13:00:30;9.60;;;3.30;;
68025;SDS011;54819;48.030;14.710;2023-04-03T13:03:02;4.10;;;2.20;;
68025;SDS011;54819;48.030;14.710;2023-04-03T13:05:31;6.50;;;3.60;;
68025;SDS011;54819;48.030;14.710;2023-04-03T13:08:05;3.50;;;2.00;;
68025;SDS011;54819;48.030;14.710;2023-04-03T13:11:15;4.60;;;2.20;;
68025;SDS011;54819;48.030;14.710;2023-04-03T13:13:54;4.90;;;2.50;;
68025;SDS011;54819;48.030;14.710;2023-04-03T13:16:22;4.20;;;2.50;;
68025;SDS011;54819;48.030;14.710;2023-04-03T13:18:53;4.80;;;2.30;;
68025;SDS011;54819;48.030;14.710;2023-04-03T13:21:30;3.60;;;1.80;;
68025;SDS011;54819;48.030;14.710;2023-04-03T13:24:01;5.10;;;2.50;;
68025;SDS011;54819;48.030;14.710;2023-04-03T13:26:40;5.90;;;2.30;;
68025;SDS011;54819;48.030;14.710;2023-04-03T13:29:21;4.30;;;2.40;;
68025;SDS011;54819;48.030;14.710;2023-04-03T13:31:58;4.60;;;2.50;;
68025;SDS011;54819;48.030;14.710;2023-04-03T13:34:29;4.00;;;2.40;;
68025;SDS011;54819;48.030;14.710;2023-04-03T13:37:04;3.80;;;2.50;;
68025;SDS011;54819;48.030;14.710;2023-04-03T13:39:33;3.80;;;2.20;;
68025;SDS011;54819;48.030;14.710;2023-04-03T13:42:21;8.10;;;2.90;;
68025;SDS011;54819;48.030;14.710;2023-04-03T13:45:20;6.80;;;2.60;;
68025;SDS011;54819;48.030;14.710;2023-04-03T13:47:52;7.40;;;2.60;;
68025;SDS011;54819;48.030;14.710;2023-04-03T13:50:23;3.50;;;1.70;;
68025;SDS011;54819;48.030;14.710;2023-04-03T13:53:01;4.10;;;1.90;;
68025;SDS011;54819;48.030;14.710;2023-04-03T13:55:37;6.10;;;2.20;;
68025;SDS011;54819;48.030;14.710;2023-04-03T13:58:28;4.70;;;2.20;;
68025;SDS011;54819;48.030;14.710;2023-04-03T14:01:17;5.40;;;2.50;;
68025;SDS011;54819;48.030;14.710;2023-04-03T14:03:54;6.30;;;2.40;;
68025;SDS011;54819;48.030;14.710;2023-04-03T14:06:26;5.80;;;2.90;;
68025;SDS011;54819;48.030;14.710;2023-04-03T14:08:56;4.70;;;2.40;;
68025;SDS011;54819;48.030;14.710;2023-04-03T14:11:28;6.70;;;2.40;;
68025;SDS011;54819;48.030;14.710;2023-04-03T14:14:13;5.90;;;2.70;;
68025;SDS011;54819;48.030;14.710;2023-04-03T14:16:45;5.20;;;2.10;;
68025;SDS011;54819;48.030;14.710;2023-04-03T14:19:23;3.30;;;1.80;;
68025;SDS011;54819;48.030;14.710;2023-04-03T14:21:56;4.40;;;2.30;;
68025;SDS011;54819;48.030;14.710;2023-04-03T14:26:51;6.80;;;2.70;;
68025;SDS011;54819;48.030;14.710;2023-04-03T14:29:21;3.20;;;1.90;;
68025;SDS011;54819;48.030;14.710;2023-04-03T14:31:49;6.60;;;3.10;;
68025;SDS011;54819;48.030;14.710;2023-04-03T14:34:29;6.40;;;2.90;;
68025;SDS011;54819;48.030;14.710;2023-04-03T14:36:56;4.30;;;2.90;;
68025;SDS011;54819;48.030;14.710;2023-04-03T14:39:23;6.50;;;2.80;;
68025;SDS011;54819;48.030;14.710;2023-04-03T14:41:49;7.70;;;2.70;;
68025;SDS011;54819;48.030;14.710;2023-04-03T14:44:16;4.80;;;2.40;;
68025;SDS011;54819;48.030;14.710;2023-04-03T14:46:43;5.60;;;2.50;;
68025;SDS011;54819;48.030;14.710;2023-04-03T14:49:25;8.20;;;3.00;;
68025;SDS011;54819;48.030;14.710;2023-04-03T14:51:57;5.50;;;2.70;;
68025;SDS011;54819;48.030;14.710;2023-04-03T14:54:25;5.90;;;3.30;;
68025;SDS011;54819;48.030;14.710;2023-04-03T14:56:55;7.20;;;3.10;;
68025;SDS011;54819;48.030;14.710;2023-04-03T14:59:23;7.80;;;3.30;;
68025;SDS011;54819;48.030;14.710;2023-04-03T15:04:20;6.70;;;3.50;;
68025;SDS011;54819;48.030;14.710;2023-04-03T15:06:48;5.90;;;3.20;;
68025;SDS011;54819;48.030;14.710;2023-04-03T15:09:26;5.10;;;3.10;;
68025;SDS011;54819;48.030;14.710;2023-04-03T15:11:54;5.50;;;3.20;;
68025;SDS011;54819;48.030;14.710;2023-04-03T15:14:22;4.70;;;2.40;;
68025;SDS011;54819;48.030;14.710;2023-04-03T15:17:08;6.00;;;2.90;;
68025;SDS011;54819;48.030;14.710;2023-04-03T15:19:40;5.80;;;2.80;;
68025;SDS011;54819;48.030;14.710;2023-04-03T15:22:12;6.70;;;2.40;;
68025;SDS011;54819;48.030;14.710;2023-04-03T15:24:41;8.10;;;3.00;;
68025;SDS011;54819;48.030;14.710;2023-04-03T15:29:39;5.90;;;2.90;;
68025;SDS011;54819;48.030;14.710;2023-04-03T15:32:07;4.80;;;2.50;;
68025;SDS011;54819;48.030;14.710;2023-04-03T15:34:36;4.80;;;3.00;;
68025;SDS011;54819;48.030;14.710;2023-04-03T15:37:03;4.20;;;2.40;;
68025;SDS011;54819;48.030;14.710;2023-04-03T15:39:31;5.50;;;2.50;;
68025;SDS011;54819;48.030;14.710;2023-04-03T15:41:58;6.00;;;4.20;;
68025;SDS011;54819;48.030;14.710;2023-04-03T15:44:34;7.90;;;3.20;;
68025;SDS011;54819;48.030;14.710;2023-04-03T15:47:01;10.40;;;3.30;;
68025;SDS011;54819;48.030;14.710;2023-04-03T15:49:28;4.20;;;2.40;;
68025;SDS011;54819;48.030;14.710;2023-04-03T15:51:55;5.30;;;2.60;;
68025;SDS011;54819;48.030;14.710;2023-04-03T15:54:22;5.30;;;2.70;;
68025;SDS011;54819;48.030;14.710;2023-04-03T15:56:50;5.60;;;2.30;;
68025;SDS011;54819;48.030;14.710;2023-04-03T15:59:17;6.40;;;2.70;;
68025;SDS011;54819;48.030;14.710;2023-04-03T16:01:45;6.70;;;2.40;;
68025;SDS011;54819;48.030;14.710;2023-04-03T16:04:12;8.90;;;3.00;;
68025;SDS011;54819;48.030;14.710;2023-04-03T16:06:41;5.70;;;2.70;;
68025;SDS011;54819;48.030;14.710;2023-04-03T16:09:08;5.60;;;2.50;;
68025;SDS011;54819;48.030;14.710;2023-04-03T16:11:36;5.00;;;2.30;;
68025;SDS011;54819;48.030;14.710;2023-04-03T16:14:06;5.60;;;2.30;;
68025;SDS011;54819;48.030;14.710;2023-04-03T16:16:34;5.40;;;2.40;;
68025;SDS011;54819;48.030;14.710;2023-04-03T16:19:02;5.70;;;2.50;;
68025;SDS011;54819;48.030;14.710;2023-04-03T16:21:29;5.50;;;2.40;;
68025;SDS011;54819;48.030;14.710;2023-04-03T16:24:00;5.10;;;2.50;;
68025;SDS011;54819;48.030;14.710;2023-04-03T16:26:27;4.40;;;2.00;;
68025;SDS011;54819;48.030;14.710;2023-04-03T16:28:54;5.90;;;2.30;;
68025;SDS011;54819;48.030;14.710;2023-04-03T16:31:21;4.90;;;2.50;;
68025;SDS011;54819;48.030;14.710;2023-04-03T16:33:50;6.60;;;2.10;;
68025;SDS011;54819;48.030;14.710;2023-04-03T16:36:17;7.40;;;2.60;;
68025;SDS011;54819;48.030;14.710;2023-04-03T16:38:44;4.80;;;2.00;;
68025;SDS011;54819;48.030;14.710;2023-04-03T16:41:10;4.80;;;2.30;;
68025;SDS011;54819;48.030;14.710;2023-04-03T16:43:37;5.40;;;2.50;;
68025;SDS011;54819;48.030;14.710;2023-04-03T16:46:04;5.20;;;2.30;;
68025;SDS011;54819;48.030;14.710;2023-04-03T16:48:31;4.70;;;2.10;;
68025;SDS011;54819;48.030;14.710;2023-04-03T16:50:58;4.60;;;2.00;;
68025;SDS011;54819;48.030;14.710;2023-04-03T16:53:25;5.50;;;1.80;;
68025;SDS011;54819;48.030;14.710;2023-04-03T16:55:53;5.00;;;2.20;;